Salmon Gums RES. Station, Western Australia

6:10 PM AWST on October 23, 2014 (GMT +0800)
Esperance | Change Station
CLOSE
Current Station
Airport
Location: Esperance Airport,
Elevation: 469 ft
Nearby Weather Stations

Elev 469 ft 33.68 °S, 121.82 °E | Updated 1 hour ago

Clear
Clear
70 °F
Feels Like 70 °F
N
15
Wind Variable Wind from SW

Today
High -- | Low -- °F
--% Chance of Precip.
Yesterday
High -- | Low -- °F
Precip. -- in
5:04 AM 6:12 PM
Waning Crescent, 0% visible
Pressure 29.89 in
Visibility 6.2 miles
Clouds
Dew Point 55 °F
Humidity 60%
Rainfall 0.00 in
Snow Depth Not available.
UV Not available.
Pollen Not available.
Air Quality Not available.
Flu Activity Not available.
METAR YESP 230900Z AUTO 23013KT 9999 // NCD 21/13 Q1012

More Conditions Fewer Conditions

Pressure 29.89 in
Visibility 6.2 miles
Clouds
Dew Point 55 °F
Humidity 60%
Rainfall 0.00 in
Snow Depth Not available.
UV Not available.
Pollen Not available.
Air Quality Not available.
Flu Activity Not available.
METAR YESP 230900Z AUTO 23013KT 9999 // NCD 21/13 Q1012

More Conditions Fewer Conditions

10-Day Weather Forecast

Almanac

Astronomy

Oct. 23, 2014 Rise Set
Actual Time 5:04 AM AWST 6:12 PM AWST
Civil Twilight 4:38 AM AWST 6:37 PM AWST
Nautical Twilight 4:08 AM AWST 7:08 PM AWST
Astronomical Twilight 3:36 AM AWST 7:39 PM AWST
Moon 4:34 AM AWST 5:38 PM AWST
Length of Visible Light 13h 59m
Length of Day
13h 07m
Tomorrow will be 1m 56s longer.
Waning Crescent, 0% of the Moon is Illuminated
Today
Waning Crescent
Oct 23
New
Oct 30
First Quarter
Nov 6
Full
Nov 14
Last Quarter

Yesterday's Extremes

Country Highs Country Lows

Community

WunderPhotos

Upload Photos

1,764,202 photos uploaded!

Nearby

Snow Depth

Not available.

Earthquake Activity

City Distance Mag. Time & Date
No recent earthquake activity has been reported nearby.
Minimum magnitude displayed is 2.5.

Coastal Water Temperatures

Place Temperature
No Stations Reporting

Nearby Weather Stations